Terminal Aerodrome Forecast
Issued by NWS Jacksonville, FL

Home | Current Version | Previous Version | Text Only | Print | Product List | Glossary On
Versions: 1 2 3 4 5 6 7 8 9 10 11 12 13 14 15 16
000
FTUS42 KJAX 271120
TAFSSI
TAF
KSSI 271120Z 2712/2812 03007KT P6SM VCSH FEW015 SCT030 BKN050
      TEMPO 2712/2715 5SM SHRA BR SCT015 BKN025
     FM271500 07012KT P6SM VCSH SCT035 BKN060
     FM271700 08012G18KT P6SM BKN040 BKN250
     FM280000 08010KT P6SM BKN250=

USA.gov is the U.S. government's official web portal to all federal, state and local government web resources and services.